Time;durP1;ratioP1;P1;durP2;ratioP2;P2;SDS_P1;SDS_P2;PMS_P1;PMS_P2;Temp;Humidity;BMP_temperature;BMP_pressure;BME280_temperature;BME280_humidity;BME280_pressure;Samples;Min_cycle;Max_cycle;Signal;HPM_P1;HPM_P2
2021/12/02 00:02:20;;;;;;;0.93;0.70;;;6.00;99.90;;;6.75;100.00;97814.66;4992510;28;20621;-60
2021/12/02 00:04:48;;;;;;;1.73;0.70;;;6.00;99.90;;;6.69;100.00;97810.34;4992840;28;20245;-60
2021/12/02 00:07:17;;;;;;;1.63;0.90;;;6.00;99.90;;;6.62;100.00;97811.59;4992884;28;20256;-60
2021/12/02 00:09:47;;;;;;;2.30;1.10;;;5.90;99.90;;;6.57;100.00;97808.84;4992818;28;20303;-60
2021/12/02 00:12:16;;;;;;;2.17;1.20;;;5.90;99.90;;;6.67;100.00;97811.63;4992791;28;20203;-61
2021/12/02 00:14:46;;;;;;;2.50;1.00;;;5.90;99.90;;;6.60;100.00;97817.19;4992798;28;20557;-60
2021/12/02 00:17:18;;;;;;;3.17;1.40;;;5.90;99.90;;;6.53;100.00;97816.56;4992131;28;20317;-61
2021/12/02 00:22:41;;;;;;;1.50;1.00;;;5.80;99.90;;;6.54;100.00;97831.56;4992677;28;20285;-59
2021/12/02 00:25:09;;;;;;;1.90;0.93;;;5.70;99.90;;;6.50;100.00;97830.44;4992642;28;20198;-60
2021/12/02 00:27:41;;;;;;;2.27;1.00;;;5.70;99.90;;;6.31;100.00;97829.16;4991890;28;20805;-60
2021/12/02 00:30:10;;;;;;;2.20;1.00;;;5.70;99.90;;;6.34;100.00;97828.69;4992372;28;20187;-60
2021/12/02 00:32:43;;;;;;;1.87;0.80;;;5.70;99.90;;;6.37;100.00;97830.03;4982820;28;20207;-62
2021/12/02 00:35:12;;;;;;;3.03;0.83;;;5.70;99.90;;;6.35;100.00;97843.66;4985264;28;20631;-60
2021/12/02 00:37:42;;;;;;;0.90;0.60;;;5.60;99.90;;;6.28;100.00;97840.34;4992908;28;20211;-60
2021/12/02 00:40:11;;;;;;;1.80;1.00;;;5.60;99.90;;;6.32;100.00;97854.03;4993022;28;20607;-60
2021/12/02 00:42:43;;;;;;;4.03;1.07;;;5.60;99.90;;;6.39;100.00;97847.44;4996287;28;20294;-61
2021/12/02 00:45:11;;;;;;;1.93;0.90;;;5.60;99.90;;;6.50;100.00;97857.19;4996210;28;20282;-60
2021/12/02 00:47:39;;;;;;;4.33;1.10;;;5.70;99.90;;;6.61;100.00;97863.47;4995989;28;20243;-60
2021/12/02 00:50:08;;;;;;;2.63;0.80;;;5.70;99.90;;;6.71;100.00;97861.72;4995874;28;20546;-60
2021/12/02 00:52:38;;;;;;;3.77;0.97;;;5.80;99.90;;;6.73;100.00;97864.94;4995863;28;20566;-61
2021/12/02 00:55:08;;;;;;;2.03;1.03;;;5.80;99.90;;;6.80;100.00;97873.56;4996117;28;20204;-60
2021/12/02 00:57:42;;;;;;;1.90;1.30;;;5.90;99.90;;;6.75;100.00;97864.72;4995782;28;20206;-61
2021/12/02 01:00:12;;;;;;;4.20;1.10;;;6.00;99.90;;;6.85;100.00;97862.13;4995589;28;20201;-60
2021/12/02 01:02:43;;;;;;;1.80;1.23;;;6.00;99.90;;;6.89;100.00;97865.91;4995886;28;20278;-61
2021/12/02 01:05:12;;;;;;;3.73;1.60;;;6.00;99.90;;;6.95;100.00;97865.69;4995827;28;20199;-60
2021/12/02 01:07:41;;;;;;;3.70;0.97;;;6.00;99.90;;;6.92;100.00;97873.41;4995861;28;20299;-60
2021/12/02 01:10:10;;;;;;;4.07;1.20;;;6.10;99.90;;;6.98;100.00;97867.88;4995527;28;20253;-59
2021/12/02 01:12:38;;;;;;;3.50;1.57;;;6.10;99.90;;;6.87;100.00;97876.03;4995516;28;20293;-60
2021/12/02 01:15:10;;;;;;;2.47;1.00;;;6.10;99.90;;;6.76;100.00;97877.81;4995224;28;20643;-61
2021/12/02 01:17:38;;;;;;;2.50;0.70;;;6.00;99.90;;;6.75;100.00;97876.19;4995147;28;20220;-61
2021/12/02 01:20:08;;;;;;;2.40;1.30;;;6.00;99.90;;;6.76;100.00;97872.47;4995162;28;20243;-61
2021/12/02 01:22:39;;;;;;;4.73;1.43;;;6.00;99.90;;;6.87;100.00;97882.22;4995134;28;20234;-60
2021/12/02 01:25:08;;;;;;;2.30;1.00;;;6.00;99.90;;;6.77;100.00;97879.44;4994960;28;20192;-60
2021/12/02 01:27:37;;;;;;;4.13;1.17;;;6.00;99.90;;;6.69;100.00;97890.59;4995030;28;20235;-61
2021/12/02 01:30:09;;;;;;;2.97;1.10;;;5.90;99.90;;;6.90;100.00;97892.41;4994938;28;20184;-60
2021/12/02 01:32:40;;;;;;;2.23;1.40;;;6.00;99.90;;;6.85;100.00;97896.91;4994980;28;20282;-61
2021/12/02 01:35:09;;;;;;;3.13;1.27;;;6.00;99.90;;;6.85;100.00;97900.38;4995133;28;20283;-61
2021/12/02 01:37:39;;;;;;;4.40;1.20;;;6.00;99.90;;;7.04;100.00;97898.16;4995236;28;20230;-61
2021/12/02 01:40:09;;;;;;;2.97;1.53;;;6.00;99.90;;;7.00;100.00;97911.25;4995200;28;20271;-62
2021/12/02 01:42:41;;;;;;;2.80;1.30;;;6.10;99.90;;;6.94;100.00;97914.94;4995145;28;20286;-60
2021/12/02 01:45:16;;;;;;;3.87;1.60;;;6.10;99.90;;;6.95;100.00;97907.72;4995167;28;20295;-60
2021/12/02 01:47:51;;;;;;;3.50;1.70;;;6.10;99.90;;;6.83;100.00;97905.16;4976029;28;20223;-60
2021/12/02 01:50:23;;;;;;;3.73;1.40;;;6.10;99.90;;;7.01;100.00;97907.53;4975887;28;20196;-61
2021/12/02 01:52:58;;;;;;;2.40;1.30;;;6.10;99.90;;;6.90;100.00;97903.09;4974695;28;20199;-60
2021/12/02 01:55:28;;;;;;;2.60;1.50;;;6.10;99.90;;;6.89;100.00;97906.84;4975841;28;20211;-59
2021/12/02 01:58:00;;;;;;;4.30;1.37;;;6.10;99.90;;;6.84;100.00;97906.81;4975686;28;20266;-61
2021/12/02 02:00:41;;;;;;;2.80;1.50;;;6.10;99.90;;;6.81;100.00;97906.50;4975385;28;20433;-61
2021/12/02 02:03:12;;;;;;;3.77;1.57;;;6.00;99.90;;;6.85;100.00;97907.63;4975442;28;20641;-61
2021/12/02 02:05:40;;;;;;;2.00;1.50;;;6.00;99.90;;;6.89;100.00;97914.06;4975966;28;20279;-61
2021/12/02 02:08:17;;;;;;;4.07;1.70;;;6.00;99.90;;;6.76;100.00;97917.13;4975282;28;20615;-60
2021/12/02 02:10:46;;;;;;;2.47;1.47;;;6.00;99.90;;;6.54;100.00;97925.19;4975312;28;20185;-61
2021/12/02 02:13:16;;;;;;;3.77;1.53;;;5.90;99.90;;;6.65;100.00;97918.88;4975246;28;20214;-60
2021/12/02 02:15:49;;;;;;;4.67;1.20;;;5.80;99.90;;;6.69;100.00;97925.38;4979013;28;20318;-61
2021/12/02 02:18:20;;;;;;;3.90;1.20;;;5.90;99.90;;;6.64;100.00;97921.81;4994640;28;20208;-62
2021/12/02 02:20:57;;;;;;;3.07;1.20;;;5.90;99.90;;;6.40;100.00;97923.09;4994354;28;20302;-63
2021/12/02 02:23:29;;;;;;;2.57;1.10;;;5.80;99.90;;;6.41;100.00;97936.22;4994476;28;20205;-60
2021/12/02 02:25:59;;;;;;;3.10;1.10;;;5.70;99.90;;;6.28;100.00;97928.56;4994058;28;20275;-61
2021/12/02 02:28:29;;;;;;;2.37;1.20;;;5.60;99.90;;;6.25;100.00;97926.41;4993922;28;20589;-62
2021/12/02 02:30:57;;;;;;;2.57;1.10;;;5.60;99.90;;;6.34;100.00;97935.63;4994042;28;20193;-60
2021/12/02 02:33:33;;;;;;;5.63;1.50;;;5.60;99.90;;;6.10;100.00;97937.69;4994034;28;20239;-61
2021/12/02 02:36:04;;;;;;;4.97;1.40;;;5.50;99.90;;;6.25;100.00;97945.13;4994125;28;20277;-60
2021/12/02 02:38:33;;;;;;;2.40;1.30;;;5.50;99.90;;;6.27;100.00;97943.00;4994049;28;20307;-61
2021/12/02 02:41:03;;;;;;;3.50;1.10;;;5.50;99.90;;;6.24;100.00;97948.81;4994131;28;20563;-60
2021/12/02 02:43:33;;;;;;;4.10;1.37;;;5.50;99.90;;;6.10;100.00;97961.75;4994072;28;20307;-60
2021/12/02 02:46:02;;;;;;;4.23;1.60;;;5.40;99.90;;;6.26;100.00;97956.63;4993804;28;20667;-61
2021/12/02 02:48:31;;;;;;;2.20;1.10;;;5.40;99.90;;;6.22;100.00;97964.31;4993915;28;20209;-60
2021/12/02 02:50:59;;;;;;;3.13;1.17;;;5.50;99.90;;;6.29;100.00;97964.13;4993859;28;20207;-60
2021/12/02 02:53:29;;;;;;;3.10;1.00;;;5.50;99.90;;;6.43;100.00;97968.88;4993632;28;20306;-61
2021/12/02 02:56:05;;;;;;;4.07;1.27;;;5.60;99.90;;;6.30;100.00;97963.06;4993575;28;20298;-61
2021/12/02 02:58:45;;;;;;;2.23;0.90;;;5.60;99.90;;;6.43;100.00;97960.84;4993785;28;20214;-60
2021/12/02 03:01:27;;;;;;;3.83;1.20;;;5.60;99.90;;;6.48;100.00;97970.84;4993279;28;20179;-60
2021/12/02 03:04:04;;;;;;;5.50;1.40;;;5.60;99.90;;;6.48;100.00;97966.28;4993680;28;20308;-60
2021/12/02 03:06:37;;;;;;;2.53;1.50;;;5.70;99.90;;;6.42;100.00;97964.59;4993354;28;20312;-60
2021/12/02 03:09:12;;;;;;;3.80;1.50;;;5.60;99.90;;;6.33;100.00;97966.06;4993236;28;20616;-61
2021/12/02 03:11:45;;;;;;;3.20;1.50;;;5.60;99.90;;;6.39;100.00;97967.78;4993595;28;20222;-61
2021/12/02 03:14:18;;;;;;;2.83;1.27;;;5.60;99.90;;;6.62;100.00;97972.88;4993535;28;20195;-61
2021/12/02 03:16:46;;;;;;;3.27;1.63;;;5.70;99.90;;;6.66;100.00;97978.56;4992896;28;20212;-60
2021/12/02 03:19:22;;;;;;;3.40;1.30;;;5.70;99.90;;;6.62;100.00;97975.56;4993188;28;20207;-60
2021/12/02 03:21:50;;;;;;;5.10;1.80;;;5.70;99.90;;;6.67;100.00;97986.31;4993392;28;20226;-59
2021/12/02 03:24:20;;;;;;;4.73;1.50;;;5.70;99.90;;;6.42;100.00;97991.34;4993164;28;20332;-61
2021/12/02 03:26:48;;;;;;;2.03;1.27;;;5.70;99.90;;;6.61;100.00;97990.00;4987207;28;20239;-61
2021/12/02 03:29:16;;;;;;;2.10;1.47;;;5.70;99.90;;;6.54;100.00;97989.38;4973646;28;20244;-61
2021/12/02 03:31:44;;;;;;;3.73;1.90;;;5.70;99.90;;;6.52;100.00;97994.16;4975915;28;20208;-60
2021/12/02 03:34:13;;;;;;;2.90;1.50;;;5.70;99.90;;;6.59;100.00;98002.00;4993029;28;20875;-61
2021/12/02 03:36:42;;;;;;;3.83;1.60;;;5.70;99.90;;;6.44;100.00;98017.81;4992735;28;20543;-61
2021/12/02 03:39:12;;;;;;;3.00;1.40;;;5.70;99.90;;;6.39;100.00;98042.63;4993098;28;20221;-60
2021/12/02 03:41:42;;;;;;;2.30;1.30;;;5.60;99.90;;;6.14;100.00;98020.84;4993090;28;20210;-60
2021/12/02 03:44:11;;;;;;;2.67;1.10;;;5.50;99.90;;;5.76;100.00;98036.75;4993150;28;20194;-61
2021/12/02 03:46:41;;;;;;;5.07;1.70;;;5.30;99.90;;;5.30;100.00;98029.78;4992916;28;20294;-60
2021/12/02 03:49:10;;;;;;;3.10;1.07;;;4.90;99.90;;;5.15;100.00;98034.84;4992853;28;20619;-60
2021/12/02 03:51:38;;;;;;;4.00;1.20;;;4.70;99.90;;;4.99;100.00;98032.91;4992864;28;20683;-60
2021/12/02 03:54:06;;;;;;;2.97;1.37;;;4.50;99.90;;;4.89;100.00;98033.50;4992744;28;20693;-61
2021/12/02 03:56:34;;;;;;;3.67;1.40;;;4.40;99.90;;;4.86;100.00;98042.00;4993049;28;20315;-61
2021/12/02 03:59:05;;;;;;;2.70;1.20;;;4.30;99.90;;;4.79;100.00;98043.97;4992911;28;20219;-61
2021/12/02 04:01:33;;;;;;;2.97;1.30;;;4.30;99.90;;;4.66;100.00;98028.22;4992819;28;20209;-62
2021/12/02 04:04:01;;;;;;;2.27;1.17;;;4.10;99.90;;;4.63;100.00;98031.34;4992895;28;20199;-60
2021/12/02 04:06:29;;;;;;;1.87;1.00;;;4.10;99.90;;;4.78;100.00;98036.22;4992777;28;20209;-61
2021/12/02 04:09:00;;;;;;;1.77;0.90;;;4.10;99.90;;;4.76;100.00;98031.13;4992606;28;20202;-61
2021/12/02 04:11:36;;;;;;;3.03;1.10;;;4.10;99.90;;;4.95;100.00;98039.78;4992620;28;20199;-61
2021/12/02 04:14:12;;;;;;;2.13;0.80;;;4.20;99.90;;;4.89;100.00;98036.19;4992784;28;20267;-59
2021/12/02 04:16:51;;;;;;;3.23;0.80;;;4.20;99.90;;;4.98;100.00;98039.28;4995312;28;20756;-61
2021/12/02 04:19:21;;;;;;;1.40;0.90;;;4.30;99.90;;;4.90;100.00;98043.13;4996516;28;20309;-60
2021/12/02 04:21:49;;;;;;;4.63;1.30;;;4.20;99.90;;;4.67;100.00;98053.84;4996445;28;20776;-60
2021/12/02 04:24:18;;;;;;;1.93;1.00;;;4.20;99.90;;;4.78;100.00;98041.53;4996559;28;20293;-61
2021/12/02 04:26:47;;;;;;;4.17;1.70;;;4.20;99.90;;;4.68;100.00;98046.66;4990745;28;20192;-60
2021/12/02 04:29:17;;;;;;;2.17;1.20;;;4.10;99.90;;;4.60;100.00;98042.47;4976989;28;20706;-60
2021/12/02 04:31:48;;;;;;;3.43;1.30;;;4.00;99.90;;;4.49;100.00;98048.66;4979539;28;20187;-61
2021/12/02 04:34:17;;;;;;;5.97;1.40;;;4.10;99.90;;;4.44;100.00;98053.88;4996551;28;20209;-61
2021/12/02 04:36:45;;;;;;;2.70;1.10;;;4.00;99.90;;;4.45;100.00;98052.00;4996506;28;20298;-60
2021/12/02 04:39:14;;;;;;;3.10;1.20;;;4.00;99.90;;;4.48;100.00;98056.88;4996237;28;20275;-60
2021/12/02 04:41:42;;;;;;;1.97;1.47;;;3.90;99.90;;;4.49;100.00;98064.66;4996455;28;20289;-60
2021/12/02 04:44:10;;;;;;;3.83;1.20;;;4.00;99.90;;;4.30;100.00;98065.78;4996166;28;20624;-61
2021/12/02 04:46:39;;;;;;;6.73;1.40;;;3.90;99.90;;;4.50;100.00;98065.47;4996118;28;20244;-60
2021/12/02 04:49:08;;;;;;;3.90;1.10;;;3.90;99.90;;;4.68;100.00;98081.31;4996168;28;20203;-60
2021/12/02 04:51:36;;;;;;;2.57;1.27;;;4.10;99.90;;;4.73;100.00;98087.59;4996277;28;20203;-61
2021/12/02 04:54:04;;;;;;;4.73;1.13;;;4.10;99.90;;;4.55;100.00;98087.69;4995761;28;20733;-62
2021/12/02 04:56:32;;;;;;;4.23;0.73;;;4.00;99.90;;;4.58;100.00;98081.88;4995881;28;20682;-60
2021/12/02 04:59:00;;;;;;;2.83;1.10;;;4.00;99.90;;;4.56;100.00;98081.34;4995557;28;20820;-60
2021/12/02 05:01:28;;;;;;;3.20;1.00;;;4.00;99.90;;;4.44;100.00;98083.19;4995858;28;20286;-61
2021/12/02 05:03:58;;;;;;;4.50;1.10;;;4.00;99.90;;;4.50;100.00;98087.56;4995557;28;20235;-61
2021/12/02 05:06:26;;;;;;;3.20;1.10;;;4.00;99.90;;;4.56;100.00;98099.19;4995978;28;20202;-61
2021/12/02 05:08:54;;;;;;;3.20;1.50;;;3.90;99.90;;;4.65;100.00;98105.78;4995060;28;20209;-60
2021/12/02 05:11:22;;;;;;;2.30;1.17;;;3.90;99.90;;;4.59;100.00;98112.84;4995680;28;20205;-60
2021/12/02 05:13:50;;;;;;;2.47;1.40;;;3.90;99.90;;;4.58;100.00;98113.09;4995366;28;20683;-61
2021/12/02 05:16:18;;;;;;;4.50;1.00;;;3.90;99.90;;;4.60;100.00;98111.81;4995667;28;20308;-60
2021/12/02 05:18:46;;;;;;;2.17;1.00;;;3.90;99.90;;;4.59;100.00;98112.84;4995180;28;20229;-61
2021/12/02 05:21:16;;;;;;;3.50;1.03;;;3.90;99.90;;;4.51;100.00;98115.88;4995552;28;20202;-61
2021/12/02 05:23:44;;;;;;;3.57;1.40;;;3.90;99.90;;;4.37;100.00;98117.13;4994841;28;20303;-61
2021/12/02 05:26:12;;;;;;;3.27;1.00;;;3.80;99.90;;;4.40;100.00;98115.84;4995189;28;20206;-61
2021/12/02 05:28:40;;;;;;;4.77;1.50;;;3.80;99.90;;;4.34;100.00;98122.09;4994993;28;20342;-60
2021/12/02 05:31:08;;;;;;;3.90;1.37;;;3.80;99.90;;;4.20;100.00;98134.00;4995482;28;20219;-60
2021/12/02 05:33:36;;;;;;;5.10;1.27;;;3.70;99.90;;;4.18;100.00;98134.25;4994915;28;20553;-60
2021/12/02 05:36:05;;;;;;;5.17;1.30;;;3.60;99.90;;;4.07;100.00;98132.38;4995064;28;20210;-60
2021/12/02 05:38:34;;;;;;;2.47;1.50;;;3.60;99.90;;;4.01;100.00;98143.13;4994613;28;20316;-62
2021/12/02 05:41:03;;;;;;;2.80;2.00;;;3.50;99.90;;;4.00;100.00;98147.63;4995228;28;20228;-61
2021/12/02 05:43:32;;;;;;;4.43;2.50;;;3.50;99.90;;;4.27;100.00;98153.38;4995034;28;20302;-61
2021/12/02 05:46:00;;;;;;;4.77;3.00;;;3.50;99.90;;;4.27;100.00;98154.19;4995037;28;20324;-63
2021/12/02 05:48:28;;;;;;;9.50;5.07;;;3.60;99.90;;;4.54;100.00;98155.41;4994926;28;20213;-60
2021/12/02 05:50:56;;;;;;;6.70;3.87;;;3.70;99.90;;;4.66;100.00;98166.88;4994630;28;20823;-61
2021/12/02 05:53:24;;;;;;;5.40;1.97;;;3.80;99.90;;;4.82;100.00;98168.84;4994560;28;20214;-61
2021/12/02 05:55:53;;;;;;;4.27;1.90;;;3.90;99.90;;;4.90;100.00;98162.38;4994733;28;20242;-61
2021/12/02 05:58:21;;;;;;;2.03;1.60;;;4.00;99.90;;;4.83;100.00;98159.81;4994481;28;20328;-61
2021/12/02 06:00:50;;;;;;;4.27;1.23;;;4.00;99.90;;;4.94;100.00;98152.84;4994496;28;20296;-61
2021/12/02 06:03:18;;;;;;;3.20;1.50;;;4.10;99.90;;;4.75;100.00;98159.34;4994470;28;20212;-61
2021/12/02 06:05:47;;;;;;;5.87;1.50;;;4.00;99.90;;;4.63;100.00;98164.66;4994527;28;20654;-61
2021/12/02 06:08:16;;;;;;;3.67;1.60;;;4.00;99.90;;;4.62;100.00;98162.22;4994169;28;20284;-62
2021/12/02 06:10:44;;;;;;;3.93;1.50;;;3.90;99.90;;;4.71;100.00;98158.19;4994636;28;20303;-59
2021/12/02 06:13:14;;;;;;;3.73;1.10;;;3.90;99.90;;;4.76;100.00;98160.97;4994267;28;20633;-60
2021/12/02 06:15:42;;;;;;;3.07;1.10;;;4.00;99.90;;;4.57;100.00;98157.59;4994629;28;20211;-62
2021/12/02 06:18:10;;;;;;;2.30;1.10;;;3.90;99.90;;;4.57;100.00;98162.09;4994389;28;20205;-61
2021/12/02 06:20:40;;;;;;;1.63;1.17;;;3.80;99.90;;;4.33;100.00;98163.13;4994053;28;20191;-60
2021/12/02 06:23:08;;;;;;;3.37;1.30;;;3.80;99.90;;;4.40;100.00;98161.97;4993950;28;20296;-61
2021/12/02 06:25:47;;;;;;;1.40;0.90;;;3.80;99.90;;;4.57;100.00;98162.94;4994012;28;20205;-60
2021/12/02 06:28:17;;;;;;;1.70;1.17;;;3.80;99.90;;;4.62;100.00;98176.38;4993917;28;20232;-61
2021/12/02 06:30:46;;;;;;;3.53;1.90;;;3.80;99.90;;;4.65;100.00;98164.44;4994233;28;20188;-60
2021/12/02 06:33:15;;;;;;;4.43;1.70;;;3.80;99.90;;;4.42;100.00;98177.72;4993903;28;20195;-60
2021/12/02 06:35:44;;;;;;;5.43;1.43;;;3.80;99.90;;;4.33;100.00;98171.91;4993671;28;20569;-61
2021/12/02 06:38:12;;;;;;;3.33;1.67;;;3.70;99.90;;;4.29;100.00;98181.44;4993405;28;20205;-60
2021/12/02 06:40:45;;;;;;;2.77;1.77;;;3.70;99.90;;;4.19;100.00;98177.69;4993797;28;20622;-60
2021/12/02 06:43:15;;;;;;;4.47;1.50;;;3.60;99.90;;;4.33;100.00;98177.25;4993966;28;20281;-61
2021/12/02 06:45:46;;;;;;;2.63;2.20;;;3.60;99.90;;;4.45;100.00;98182.59;4993823;28;20205;-61
2021/12/02 06:48:15;;;;;;;2.67;1.90;;;3.60;99.90;;;4.46;100.00;98184.25;4993921;28;20197;-61
2021/12/02 06:50:43;;;;;;;5.80;2.00;;;3.70;99.90;;;4.31;100.00;98189.97;4993788;28;20292;-60
2021/12/02 06:53:16;;;;;;;4.07;2.67;;;3.70;99.90;;;4.28;100.00;98192.31;4993671;28;20250;-62
2021/12/02 06:55:45;;;;;;;5.37;2.33;;;3.60;99.90;;;4.23;100.00;98208.19;4993700;28;20190;-61
2021/12/02 06:58:13;;;;;;;6.10;2.30;;;3.60;99.90;;;4.32;100.00;98210.28;4993782;28;20306;-61
2021/12/02 07:00:41;;;;;;;5.90;2.20;;;3.60;99.90;;;4.44;100.00;98207.63;4993238;28;20279;-62
2021/12/02 07:03:11;;;;;;;4.60;1.90;;;3.60;99.90;;;4.26;100.00;98219.16;4993473;28;20205;-62
2021/12/02 07:05:39;;;;;;;3.43;1.40;;;3.60;99.90;;;4.30;100.00;98211.53;4993360;28;20295;-61
2021/12/02 07:08:07;;;;;;;4.20;1.67;;;3.50;99.90;;;4.36;100.00;98215.97;4993014;28;20289;-61
2021/12/02 07:10:41;;;;;;;4.17;1.40;;;3.60;99.90;;;4.33;100.00;98217.22;4993414;28;20304;-61
2021/12/02 07:13:09;;;;;;;5.63;1.50;;;3.50;99.90;;;4.38;100.00;98230.69;4993640;28;20233;-61
2021/12/02 07:15:42;;;;;;;5.50;1.50;;;3.60;99.90;;;4.28;100.00;98246.41;4993234;28;20213;-60
2021/12/02 07:18:14;;;;;;;4.30;1.37;;;3.60;99.90;;;4.23;100.00;98232.94;4993131;28;20644;-61
2021/12/02 07:20:44;;;;;;;3.23;1.33;;;3.60;99.90;;;4.56;100.00;98251.94;4993229;28;20260;-61
2021/12/02 07:23:12;;;;;;;3.00;1.50;;;3.70;99.90;;;4.57;100.00;98248.25;4993217;28;20194;-61
2021/12/02 07:25:41;;;;;;;4.57;1.47;;;3.70;99.90;;;4.45;100.00;98262.56;4993139;28;20312;-60
2021/12/02 07:28:10;;;;;;;4.83;1.53;;;3.70;99.90;;;4.49;100.00;98250.41;4992720;28;20763;-61
2021/12/02 07:30:39;;;;;;;3.50;1.63;;;3.70;99.90;;;4.59;100.00;98245.34;4993465;28;20295;-60
2021/12/02 07:33:14;;;;;;;6.60;1.50;;;3.80;99.90;;;4.51;100.00;98251.81;4992813;28;20608;-60
2021/12/02 07:35:43;;;;;;;5.40;1.30;;;3.80;99.90;;;4.60;100.00;98254.97;4993213;28;20185;-62
2021/12/02 07:38:11;;;;;;;5.47;1.60;;;3.80;99.90;;;4.46;100.00;98253.53;4993161;28;20201;-60
2021/12/02 07:40:41;;;;;;;2.90;1.50;;;3.80;99.90;;;4.66;100.00;98254.88;4992743;28;20271;-62
2021/12/02 07:43:09;;;;;;;4.33;1.70;;;3.90;99.90;;;4.67;100.00;98255.66;4993350;28;20267;-61
2021/12/02 07:45:37;;;;;;;3.97;1.27;;;3.90;99.90;;;4.70;100.00;98248.03;4992804;28;20294;-61
2021/12/02 07:48:08;;;;;;;4.57;1.30;;;4.00;99.90;;;4.80;100.00;98248.28;4993044;28;20604;-61
2021/12/02 07:50:38;;;;;;;2.43;1.20;;;4.00;99.90;;;5.05;100.00;98257.94;4991919;28;20642;-60
2021/12/02 07:53:08;;;;;;;5.33;1.40;;;4.10;99.90;;;5.06;100.00;98262.25;4992874;28;20201;-60
2021/12/02 07:55:40;;;;;;;6.10;1.60;;;4.20;99.90;;;5.18;100.00;98263.84;4992802;28;20190;-61
2021/12/02 07:58:11;;;;;;;5.10;2.10;;;4.20;99.90;;;5.19;100.00;98265.50;4992564;28;20217;-61
2021/12/02 08:00:41;;;;;;;5.00;1.77;;;4.30;99.90;;;4.98;100.00;98280.22;4992672;28;20230;-61
2021/12/02 08:03:12;;;;;;;3.67;1.43;;;4.30;99.90;;;5.06;100.00;98283.59;4992553;28;20209;-60
2021/12/02 08:05:41;;;;;;;11.60;10.57;;;4.30;99.90;;;4.95;100.00;98279.84;4976561;28;20191;-64
2021/12/02 08:08:11;;;;;;;4.93;1.50;;;4.20;99.90;;;4.97;100.00;98288.44;4973288;28;20210;-63
2021/12/02 08:10:39;;;;;;;4.93;1.50;;;4.20;99.90;;;4.89;100.00;98286.91;4973477;28;20512;-64
2021/12/02 08:13:07;;;;;;;4.20;1.60;;;4.20;99.90;;;4.78;100.00;98294.91;4973405;28;20206;-64
2021/12/02 08:15:35;;;;;;;3.90;1.80;;;4.20;99.90;;;4.95;100.00;98290.53;4975963;28;20670;-65
2021/12/02 08:18:04;;;;;;;2.93;1.47;;;4.20;99.90;;;4.97;100.00;98302.56;4992630;28;20205;-66
2021/12/02 08:20:32;;;;;;;3.90;1.70;;;4.20;99.90;;;4.92;100.00;98307.78;4988929;28;20226;-67
2021/12/02 08:23:02;;;;;;;5.13;1.70;;;4.20;99.90;;;4.93;100.00;98306.75;4986676;28;20293;-66
2021/12/02 08:25:32;;;;;;;5.40;3.20;;;4.30;99.90;;;5.05;100.00;98314.78;4971911;28;20653;-68
2021/12/02 08:28:02;;;;;;;6.07;1.90;;;4.30;99.90;;;5.04;100.00;98320.34;4987107;28;20235;-67
2021/12/02 08:30:35;;;;;;;2.57;1.57;;;4.40;99.90;;;5.13;100.00;98322.44;4989268;28;20293;-70
2021/12/02 08:33:05;;;;;;;6.00;1.90;;;4.40;99.90;;;5.35;100.00;98325.34;4989214;28;20219;-67
2021/12/02 08:35:34;;;;;;;6.80;1.70;;;4.40;99.90;;;5.21;100.00;98332.78;4989650;28;20402;-68
2021/12/02 08:38:07;;;;;;;5.87;1.60;;;4.50;99.90;;;5.48;100.00;98336.63;4989323;28;20337;-65
2021/12/02 08:40:37;;;;;;;6.93;2.03;;;4.50;99.90;;;5.62;100.00;98346.03;4989213;28;20319;-61
2021/12/02 08:43:07;;;;;;;6.90;1.43;;;4.60;99.90;;;5.72;100.00;98346.25;4989365;28;20215;-76
2021/12/02 08:45:37;;;;;;;4.93;1.80;;;4.80;99.90;;;6.03;100.00;98350.44;4991018;28;20246;-76
2021/12/02 08:48:08;;;;;;;4.73;1.40;;;5.00;99.90;;;6.04;100.00;98360.06;4989164;28;20711;-62
2021/12/02 08:50:38;;;;;;;5.07;1.80;;;5.10;99.90;;;5.89;100.00;98357.09;4988748;28;20231;-62
2021/12/02 08:53:09;;;;;;;4.13;1.67;;;5.10;99.90;;;5.99;100.00;98354.63;4988790;28;20246;-60
2021/12/02 08:55:39;;;;;;;4.33;1.40;;;5.10;99.90;;;6.21;100.00;98355.63;4987592;28;20294;-63
2021/12/02 08:58:09;;;;;;;5.23;1.63;;;5.20;99.90;;;6.13;100.00;98375.53;4988959;28;20720;-64
2021/12/02 09:00:40;;;;;;;5.47;1.50;;;5.20;99.90;;;5.99;100.00;98373.34;4976844;28;20294;-66
2021/12/02 09:03:14;;;;;;;6.03;1.37;;;5.20;99.90;;;6.01;100.00;98377.41;4992021;28;20604;-66
2021/12/02 09:05:44;;;;;;;6.40;1.40;;;5.20;99.90;;;6.29;100.00;98376.69;4992481;28;20285;-60
2021/12/02 09:08:15;;;;;;;5.13;1.40;;;5.30;99.90;;;6.58;100.00;98381.00;4992545;28;20578;-62
2021/12/02 09:10:43;;;;;;;6.13;2.33;;;5.50;99.90;;;6.74;98.39;98374.06;4992596;28;20198;-68
2021/12/02 09:13:11;;;;;;;5.23;2.03;;;5.60;99.90;;;6.81;98.72;98386.28;4992625;28;20212;-63
2021/12/02 09:15:40;;;;;;;4.90;1.93;;;5.70;99.90;;;6.93;97.44;98383.53;4992576;28;20243;-66
2021/12/02 09:18:08;;;;;;;4.53;1.40;;;5.80;99.90;;;6.94;98.33;98380.63;4991948;28;20210;-61
2021/12/02 09:20:37;;;;;;;4.83;1.60;;;5.80;99.90;;;6.85;98.81;98384.72;4992108;28;20227;-61
2021/12/02 09:23:05;;;;;;;5.23;1.20;;;5.80;99.90;;;6.77;98.86;98386.97;4992431;28;20208;-67
2021/12/02 09:25:34;;;;;;;3.30;1.23;;;5.70;99.90;;;6.74;96.88;98398.16;4991888;28;20211;-61
2021/12/02 09:28:02;;;;;;;4.43;1.43;;;5.80;99.90;;;6.74;95.17;98390.13;4991814;28;20231;-68
2021/12/02 09:30:31;;;;;;;3.73;1.10;;;5.80;99.90;;;6.66;93.61;98394.00;4992202;28;20291;-69
2021/12/02 09:32:59;;;;;;;5.53;1.40;;;5.80;99.90;;;6.45;95.51;98389.28;4991417;28;20294;-69
2021/12/02 09:35:27;;;;;;;3.73;1.03;;;5.70;99.90;;;6.49;95.04;98400.34;4980923;28;20200;-64
2021/12/02 09:37:55;;;;;;;5.17;1.27;;;5.60;99.90;;;6.54;94.47;98398.59;4972342;28;20320;-67
2021/12/02 09:40:23;;;;;;;4.83;1.80;;;5.70;99.90;;;6.48;91.39;98388.81;4972298;28;20608;-61
2021/12/02 09:42:53;;;;;;;2.80;1.07;;;5.60;99.90;;;6.39;92.50;98384.91;4972471;28;20232;-71
2021/12/02 09:45:21;;;;;;;3.80;1.30;;;5.60;99.90;;;6.45;92.21;98396.50;4972743;28;20722;-65
2021/12/02 09:47:51;;;;;;;8.20;1.53;;;5.60;99.90;;;6.42;93.50;98395.13;4991696;28;20226;-63
2021/12/02 09:50:27;;;;;;;5.87;1.30;;;5.50;99.90;;;6.49;93.60;98405.69;4991781;28;20190;-61
2021/12/02 09:53:05;;;;;;;3.93;1.40;;;5.60;99.90;;;6.45;92.86;98400.00;4991866;28;20206;-63
2021/12/02 09:55:40;;;;;;;6.53;2.00;;;5.60;99.90;;;6.65;92.16;98394.22;4991321;28;20811;-63
2021/12/02 09:58:17;;;;;;;4.93;2.10;;;5.60;99.90;;;6.79;89.75;98399.06;4991539;28;20183;-62
2021/12/02 10:00:48;;;;;;;3.60;1.10;;;5.70;99.90;;;6.64;86.39;98396.09;4991658;28;20344;-70
2021/12/02 10:03:21;;;;;;;4.07;1.70;;;5.60;99.90;;;6.69;87.95;98392.72;4991345;28;20187;-67
2021/12/02 10:06:03;;;;;;;3.70;1.10;;;5.70;99.90;;;6.67;89.05;98389.44;4991477;28;20223;-70
2021/12/02 10:08:40;;;;;;;6.10;1.53;;;5.70;99.90;;;6.86;90.05;98385.53;4992495;28;20302;-62
2021/12/02 10:11:11;;;;;;;4.03;1.20;;;5.80;99.90;;;6.59;91.19;98385.31;4991402;28;20183;-64
2021/12/02 10:13:47;;;;;;;3.83;1.27;;;5.80;99.90;;;6.41;90.62;98393.47;4990713;28;20195;-64
2021/12/02 10:16:22;;;;;;;6.23;1.40;;;5.70;99.90;;;6.12;88.19;98397.94;4991042;28;20297;-67
2021/12/02 10:18:59;;;;;;;4.63;1.43;;;5.50;99.90;;;5.88;89.42;98400.88;4991491;28;20242;-75
2021/12/02 10:21:35;;;;;;;6.30;1.30;;;5.40;99.90;;;5.95;91.11;98406.94;4991685;28;20222;-74
2021/12/02 10:24:07;;;;;;;3.83;1.43;;;5.30;99.90;;;6.00;91.02;98401.69;4991917;28;20193;-73
2021/12/02 10:26:39;;;;;;;6.23;1.50;;;5.30;99.90;;;6.08;90.48;98393.31;4991110;28;20538;-61
2021/12/02 10:29:18;;;;;;;3.00;1.13;;;5.30;99.90;;;6.28;89.95;98406.28;4990693;28;20246;-75
2021/12/02 10:31:49;;;;;;;6.07;1.37;;;5.40;99.90;;;6.46;90.83;98403.50;4991654;28;20219;-77
2021/12/02 10:34:19;;;;;;;4.60;1.20;;;5.50;99.90;;;6.34;90.37;98400.84;4991154;28;20199;-75
2021/12/02 10:36:49;;;;;;;4.57;1.40;;;5.50;99.90;;;6.22;90.54;98402.72;4990722;28;20302;-64
2021/12/02 10:39:21;;;;;;;4.13;1.40;;;5.40;99.90;;;6.32;88.23;98400.25;4990753;28;20211;-56
2021/12/02 10:42:05;;;;;;;3.57;1.30;;;5.40;99.90;;;6.41;87.22;98398.03;4990277;28;20639;-68
2021/12/02 10:44:39;;;;;;;5.03;1.70;;;5.50;99.90;;;6.31;89.76;98403.19;4990572;28;20226;-66